Time;durP1;ratioP1;P1;durP2;ratioP2;P2;SDS_P1;SDS_P2;PMS_P1;PMS_P2;Temp;Humidity;BMP_temperature;BMP_pressure;BME280_temperature;BME280_humidity;BME280_pressure;Samples;Min_cycle;Max_cycle;Signal;HPM_P1;HPM_P2
2024/03/10 00:00:20;;;;;;;17.33;10.57;;;;;;;5.21;71.09;96762.09;5132388;27;20230;-86
2024/03/10 00:02:46;;;;;;;13.40;11.53;;;;;;;4.91;71.33;96729.03;5132022;28;20584;-87
2024/03/10 00:05:14;;;;;;;13.87;11.40;;;;;;;5.30;71.45;96787.00;5133295;28;20198;-86
2024/03/10 00:07:41;;;;;;;15.67;11.90;;;;;;;5.32;71.43;96784.91;5123793;28;20202;-85
2024/03/10 00:10:10;;;;;;;15.70;12.50;;;;;;;5.20;71.65;96782.41;5132467;28;20226;-86
2024/03/10 00:12:36;;;;;;;13.73;11.13;;;;;;;5.23;71.57;96789.03;5116925;28;20196;-86
2024/03/10 00:15:03;;;;;;;14.27;12.33;;;;;;;5.15;71.39;96754.13;5092229;28;20196;-86
2024/03/10 00:17:32;;;;;;;14.80;12.03;;;;;;;5.19;71.60;96777.38;5104250;28;20198;-86
2024/03/10 00:19:59;;;;;;;14.67;11.30;;;;;;;5.20;71.78;96778.97;5132185;28;20218;-86
2024/03/10 00:22:26;;;;;;;16.30;11.50;;;;;;;4.94;71.74;96735.66;5131889;28;20646;-86
2024/03/10 00:24:52;;;;;;;20.53;12.77;;;;;;;5.00;71.52;96746.03;5133349;28;20646;-86
2024/03/10 00:27:19;;;;;;;18.90;11.87;;;;;;;5.16;71.89;96773.41;5131488;27;20569;-86
2024/03/10 00:29:46;;;;;;;13.40;11.57;;;;;;;5.04;72.38;96733.16;5122762;27;20187;-86
2024/03/10 00:32:13;;;;;;;13.50;11.20;;;;;;;5.08;71.49;96744.81;5131565;27;20286;-88
2024/03/10 00:34:42;;;;;;;14.27;11.33;;;;;;;5.20;71.43;96765.78;5132797;27;20195;-86
2024/03/10 00:37:09;;;;;;;14.20;10.83;;;;;;;5.07;71.62;96751.94;5133910;27;20663;-87
2024/03/10 00:39:35;;;;;;;16.17;11.57;;;;;;;5.07;71.40;96735.28;5135073;27;20244;-86
2024/03/10 00:42:02;;;;;;;17.00;12.40;;;;;;;5.28;70.72;96766.13;5135577;27;20187;-86
2024/03/10 00:44:30;;;;;;;18.87;13.37;;;;;;;4.87;72.01;96734.00;5136428;27;20195;-86
2024/03/10 00:46:57;;;;;;;14.57;13.07;;;;;;;5.14;71.98;96755.16;5136045;27;20667;-86
2024/03/10 00:49:24;;;;;;;17.47;13.00;;;;;;;5.14;72.41;96754.34;5136094;27;20633;-86
2024/03/10 00:51:53;;;;;;;15.83;12.47;;;;;;;5.11;72.28;96753.03;5134993;27;20233;-86
2024/03/10 00:54:20;;;;;;;16.63;12.57;;;;;;;4.75;72.03;96706.16;5135518;27;20195;-87
2024/03/10 00:56:48;;;;;;;19.33;13.57;;;;;;;5.13;72.27;96752.78;5136485;27;20194;-86
2024/03/10 00:59:16;;;;;;;16.97;12.20;;;;;;;4.97;71.89;96730.69;5133547;27;20636;-87
2024/03/10 01:01:42;;;;;;;17.57;13.17;;;;;;;4.99;73.07;96754.97;5120079;27;20279;-86
2024/03/10 01:04:09;;;;;;;16.83;13.27;;;;;;;4.97;73.54;96748.38;5135256;27;20194;-84
2024/03/10 01:06:36;;;;;;;19.50;14.23;;;;;;;4.99;72.81;96747.06;5094603;28;20226;-86
2024/03/10 01:09:08;;;;;;;16.10;13.17;;;;;;;5.06;72.89;96746.88;5106858;27;20273;-86
2024/03/10 01:11:37;;;;;;;17.77;12.53;;;;;;;5.03;72.78;96747.38;5135885;27;20191;-86
2024/03/10 01:14:04;;;;;;;17.83;14.63;;;;;;;4.93;72.73;96731.44;5134506;27;20614;-86
2024/03/10 01:16:31;;;;;;;17.40;13.63;;;;;;;4.87;73.23;96743.75;5135848;27;20205;-86
2024/03/10 01:18:58;;;;;;;17.47;14.40;;;;;;;4.86;73.70;96745.59;5135663;27;20226;-86
2024/03/10 01:21:25;;;;;;;18.30;12.40;;;;;;;4.63;74.13;96720.28;5135501;27;20203;-86
2024/03/10 01:23:52;;;;;;;20.13;12.83;;;;;;;4.83;73.88;96747.94;5118901;27;20682;-87
2024/03/10 01:26:21;;;;;;;18.07;13.57;;;;;;;4.79;74.07;96736.28;5132358;27;20206;-86
2024/03/10 01:28:47;;;;;;;19.23;13.83;;;;;;;4.77;73.27;96728.63;5135324;27;20194;-86
2024/03/10 01:31:14;;;;;;;17.30;14.13;;;;;;;4.99;73.73;96747.06;5133399;27;20191;-86
2024/03/10 01:33:41;;;;;;;18.73;14.77;;;;;;;4.85;73.46;96748.50;5134647;27;20568;-86
2024/03/10 01:36:08;;;;;;;21.33;15.93;;;;;;;4.80;74.13;96749.22;5126602;27;20742;-86
2024/03/10 01:38:34;;;;;;;18.63;14.27;;;;;;;4.59;73.75;96708.63;5126037;27;20684;-87
2024/03/10 01:41:02;;;;;;;18.43;13.87;;;;;;;4.64;74.06;96721.84;5114338;28;20192;-87
2024/03/10 01:43:30;;;;;;;18.83;14.83;;;;;;;4.82;74.01;96733.16;5114728;28;20191;-87
2024/03/10 01:46:06;;;;;;;17.13;13.73;;;;;;;4.84;74.06;96747.69;5114781;28;20199;-87
2024/03/10 01:48:34;;;;;;;20.33;13.77;;;;;;;4.89;74.01;96753.03;5121750;27;20191;-87
2024/03/10 01:51:01;;;;;;;19.17;12.83;;;;;;;4.63;74.67;96717.63;5134734;27;20677;-87
2024/03/10 01:53:31;;;;;;;17.30;14.37;;;;;;;4.79;74.76;96747.63;5133533;27;20202;-87
2024/03/10 01:55:59;;;;;;;17.03;12.83;;;;;;;4.71;75.38;96741.97;5134667;27;20205;-87
2024/03/10 01:58:27;;;;;;;21.93;14.60;;;;;;;4.80;75.05;96743.13;5134542;27;20280;-87
2024/03/10 02:00:56;;;;;;;20.30;14.47;;;;;;;4.74;74.31;96738.88;5133723;27;20198;-86
2024/03/10 02:03:24;;;;;;;17.07;13.40;;;;;;;4.76;74.13;96726.22;5133783;27;20255;-87
2024/03/10 02:05:52;;;;;;;18.27;14.67;;;;;;;4.76;74.97;96747.31;5134043;27;20226;-87
2024/03/10 02:08:19;;;;;;;18.03;13.90;;;;;;;4.72;75.22;96733.03;5133466;27;20195;-87
2024/03/10 02:10:48;;;;;;;23.40;16.27;;;;;;;4.76;75.49;96727.03;5134143;27;20199;-87
2024/03/10 02:13:15;;;;;;;16.93;13.33;;;;;;;4.76;74.47;96721.75;5133357;27;20563;-87
2024/03/10 02:15:42;;;;;;;18.83;13.77;;;;;;;4.82;74.75;96739.22;5134132;27;20203;-87
2024/03/10 02:18:12;;;;;;;20.53;14.67;;;;;;;4.76;75.05;96732.31;5133934;27;20198;-87
2024/03/10 02:20:40;;;;;;;18.50;13.13;;;;;;;4.78;75.17;96732.84;5134265;27;20219;-86
2024/03/10 02:23:06;;;;;;;19.63;14.10;;;;;;;4.73;75.51;96739.91;5128389;27;20187;-87
2024/03/10 02:25:41;;;;;;;19.23;13.67;;;;;;;4.80;74.93;96736.06;5121289;27;20552;-87
2024/03/10 02:28:20;;;;;;;19.80;13.67;;;;;;;4.68;74.22;96706.34;5133974;27;20274;-86
2024/03/10 02:30:56;;;;;;;17.00;13.37;;;;;;;4.31;74.63;96664.78;5134082;27;20229;-86
2024/03/10 02:47:14;;;;;;;16.87;13.63;;;;;;;4.35;75.29;96707.25;5133720;27;20264;-86
2024/03/10 02:49:41;;;;;;;21.70;15.03;;;;;;;4.47;75.88;96729.03;5133433;27;20204;-86
2024/03/10 02:52:08;;;;;;;17.27;13.93;;;;;;;4.59;75.69;96734.19;5133924;27;20542;-86
2024/03/10 02:54:35;;;;;;;16.27;12.83;;;;;;;4.59;74.98;96723.63;5132223;27;20248;-86
2024/03/10 02:57:03;;;;;;;16.47;12.50;;;;;;;4.65;75.37;96734.00;5116027;27;20260;-86
2024/03/10 02:59:30;;;;;;;17.37;13.07;;;;;;;4.54;74.80;96721.75;5132755;27;20234;-85
2024/03/10 03:01:57;;;;;;;20.87;12.93;;;;;;;4.20;74.43;96670.16;5128555;27;20188;-87
2024/03/10 03:04:26;;;;;;;17.37;12.53;;;;;;;4.55;74.60;96733.06;5128017;27;20187;-86
2024/03/10 03:06:53;;;;;;;16.43;12.83;;;;;;;4.65;74.61;96730.59;5123861;27;20311;-86
2024/03/10 03:09:20;;;;;;;16.50;12.00;;;;;;;4.40;74.82;96687.03;5132827;27;20225;-86
2024/03/10 03:11:47;;;;;;;15.03;13.27;;;;;;;4.41;75.69;96698.34;5133382;27;20232;-86
2024/03/10 03:14:15;;;;;;;16.67;12.93;;;;;;;4.59;75.28;96726.28;5133251;27;20194;-86
2024/03/10 03:16:42;;;;;;;17.97;12.93;;;;;;;4.65;74.61;96720.03;5132805;27;20271;-87
2024/03/10 03:19:13;;;;;;;23.03;13.93;;;;;;;4.66;75.04;96722.41;5132814;27;20687;-86
2024/03/10 03:21:40;;;;;;;16.97;12.73;;;;;;;4.53;74.45;96699.06;5132440;27;20195;-86
2024/03/10 03:24:08;;;;;;;20.53;13.00;;;;;;;4.57;74.36;96701.97;5132657;27;20230;-87
2024/03/10 03:26:36;;;;;;;18.10;13.40;;;;;;;4.54;75.00;96703.28;5133687;28;20194;-86
2024/03/10 03:29:04;;;;;;;20.67;15.03;;;;;;;4.33;75.46;96681.13;5127943;27;20252;-86
2024/03/10 03:31:32;;;;;;;17.30;14.37;;;;;;;4.28;75.81;96680.28;5112871;27;20223;-86
2024/03/10 03:33:59;;;;;;;22.67;15.17;;;;;;;4.59;75.39;96711.25;5122621;28;20208;-85
2024/03/10 03:36:26;;;;;;;23.03;16.03;;;;;;;4.62;74.87;96712.63;5133427;27;20653;-86
2024/03/10 03:38:53;;;;;;;19.27;15.60;;;;;;;4.38;74.27;96669.88;5131548;28;20685;-86
2024/03/10 03:41:21;;;;;;;19.70;13.60;;;;;;;4.42;74.63;96681.53;5133262;28;20191;-86
2024/03/10 03:43:48;;;;;;;16.77;13.73;;;;;;;4.52;74.79;96689.53;5125589;28;20196;-85
2024/03/10 03:46:14;;;;;;;19.07;12.90;;;;;;;4.41;74.51;96672.00;5121432;28;20198;-86
2024/03/10 03:48:42;;;;;;;18.00;15.03;;;;;;;4.60;74.00;96702.28;5132361;27;20202;-86
2024/03/10 03:51:09;;;;;;;19.93;15.50;;;;;;;4.48;74.87;96690.28;5133387;28;20195;-86
2024/03/10 03:53:37;;;;;;;20.23;15.43;;;;;;;4.55;75.08;96704.88;5131913;28;20259;-86
2024/03/10 03:56:04;;;;;;;19.40;13.83;;;;;;;4.58;74.02;96708.88;5132875;27;20582;-86
2024/03/10 03:58:34;;;;;;;18.27;14.10;;;;;;;4.17;74.45;96639.81;5132512;28;20226;-86
2024/03/10 04:01:01;;;;;;;18.93;13.00;;;;;;;4.57;74.83;96718.63;5132489;27;20218;-86
2024/03/10 04:03:30;;;;;;;18.67;12.93;;;;;;;4.31;74.92;96683.22;5133774;28;20199;-86
2024/03/10 04:05:58;;;;;;;30.93;19.07;;;;;;;4.48;75.01;96709.53;5125905;28;20270;-88
2024/03/10 04:08:25;;;;;;;22.60;16.67;;;;;;;4.21;75.05;96675.19;5113177;28;20743;-88
2024/03/10 04:10:52;;;;;;;17.83;12.70;;;;;;;4.34;76.02;96710.94;5130996;27;20206;-88
2024/03/10 04:13:19;;;;;;;18.90;14.93;;;;;;;4.09;76.41;96654.22;5136711;27;20202;-88
2024/03/10 04:15:46;;;;;;;17.93;14.43;;;;;;;4.36;76.63;96704.38;5137693;27;20198;-89
2024/03/10 04:18:13;;;;;;;23.67;15.13;;;;;;;4.46;76.55;96721.38;5136136;27;20191;-88
2024/03/10 04:20:41;;;;;;;17.90;13.87;;;;;;;4.27;75.82;96668.94;5137068;27;20233;-88
2024/03/10 04:23:10;;;;;;;17.47;14.13;;;;;;;4.40;75.70;96708.09;5137452;27;20198;-88
2024/03/10 04:25:37;;;;;;;15.63;12.80;;;;;;;4.25;75.39;96664.94;5135887;27;20199;-88
2024/03/10 04:28:04;;;;;;;15.50;12.73;;;;;;;4.22;75.30;96660.16;5121666;27;20275;-89
2024/03/10 04:30:31;;;;;;;15.67;12.33;;;;;;;4.33;75.53;96696.94;5136936;27;20263;-88
2024/03/10 04:32:58;;;;;;;20.47;13.23;;;;;;;4.31;75.28;96696.41;5137234;27;20210;-89
2024/03/10 04:35:28;;;;;;;16.60;13.83;;;;;;;4.25;75.39;96686.03;5135950;27;20613;-88
2024/03/10 04:37:55;;;;;;;24.70;14.90;;;;;;;4.19;75.73;96708.09;5136130;27;20679;-88
2024/03/10 04:40:23;;;;;;;16.87;13.73;;;;;;;4.11;76.61;96712.72;5137214;27;20221;-85
2024/03/10 04:42:50;;;;;;;19.87;14.77;;;;;;;3.98;76.76;96689.34;5136215;27;20199;-84
2024/03/10 04:45:16;;;;;;;20.20;15.80;;;;;;;3.66;77.77;96670.69;5134842;27;20198;-85
2024/03/10 04:47:43;;;;;;;21.93;15.50;;;;;;;3.76;78.65;96697.19;5121955;27;20195;-85
2024/03/10 04:50:10;;;;;;;24.07;16.50;;;;;;;3.77;79.02;96714.56;5114670;28;20249;-84
2024/03/10 04:52:37;;;;;;;25.20;17.17;;;;;;;3.75;79.48;96721.09;5114545;28;20556;-84
2024/03/10 04:55:05;;;;;;;73.37;44.20;;;;;;;3.78;79.78;96725.88;5115009;28;20233;-84
2024/03/10 04:57:34;;;;;;;84.47;53.80;;;;;;;3.86;80.24;96721.03;5114278;28;20195;-85
2024/03/10 05:00:00;;;;;;;31.17;23.97;;;;;;;3.87;79.77;96711.28;5113568;27;20288;-85
2024/03/10 05:02:27;;;;;;;27.33;21.80;;;;;;;3.52;79.98;96664.94;5115423;27;20272;-84
2024/03/10 05:04:54;;;;;;;27.00;19.83;;;;;;;3.87;80.56;96711.28;5114324;28;20301;-85
2024/03/10 05:07:21;;;;;;;25.63;19.47;;;;;;;3.83;79.98;96697.81;5114926;27;20207;-86
2024/03/10 05:09:48;;;;;;;22.60;15.67;;;;;;;3.76;79.55;96717.44;5129094;27;20624;-86
2024/03/10 05:12:15;;;;;;;20.37;16.87;;;;;;;3.77;80.17;96697.97;5126728;27;20204;-85
2024/03/10 05:14:43;;;;;;;21.73;17.70;;;;;;;3.72;79.32;96682.91;5116582;27;20226;-85
2024/03/10 05:17:11;;;;;;;36.27;22.70;;;;;;;3.76;79.94;96707.72;5114277;28;20206;-85
2024/03/10 05:19:41;;;;;;;39.00;27.47;;;;;;;4.05;79.68;96731.31;5108271;28;20202;-86
2024/03/10 05:22:09;;;;;;;46.50;31.00;;;;;;;3.80;79.12;96676.44;5125535;27;20544;-86
2024/03/10 05:24:41;;;;;;;30.50;22.70;;;;;;;4.14;78.85;96725.41;5096007;28;20286;-84
2024/03/10 05:27:08;;;;;;;33.50;24.20;;;;;;;4.09;79.00;96725.31;5114285;27;20230;-85
2024/03/10 05:29:35;;;;;;;44.00;28.37;;;;;;;3.74;78.72;96683.44;5113742;27;20697;-84
2024/03/10 05:32:04;;;;;;;61.63;40.17;;;;;;;4.05;79.19;96732.09;5114044;27;20294;-84
2024/03/10 05:34:32;;;;;;;83.83;45.20;;;;;;;3.86;79.46;96712.31;5120055;27;20206;-86
2024/03/10 05:36:59;;;;;;;59.63;37.73;;;;;;;3.91;79.48;96744.81;5113891;28;20191;-85
2024/03/10 05:39:27;;;;;;;54.93;36.37;;;;;;;3.61;79.42;96684.56;5113238;28;20238;-85
2024/03/10 05:41:54;;;;;;;35.40;26.67;;;;;;;3.92;79.45;96754.31;5123294;27;20199;-85
2024/03/10 05:44:21;;;;;;;32.53;24.23;;;;;;;3.74;79.12;96720.31;5133964;27;20191;-85
2024/03/10 05:46:48;;;;;;;27.70;21.33;;;;;;;4.05;78.82;96753.19;5134489;27;20247;-85
2024/03/10 05:49:16;;;;;;;30.77;22.87;;;;;;;4.06;78.90;96746.88;5131732;27;20202;-85
2024/03/10 05:51:45;;;;;;;25.10;18.93;;;;;;;3.92;79.05;96724.53;5113377;28;20198;-85
2024/03/10 05:54:13;;;;;;;26.80;20.97;;;;;;;4.04;79.03;96746.31;5114145;27;20323;-85
2024/03/10 05:56:41;;;;;;;22.87;18.80;;;;;;;3.87;79.06;96700.75;5117379;27;20262;-85
2024/03/10 05:59:07;;;;;;;23.40;18.93;;;;;;;3.94;78.93;96714.56;5127882;27;20215;-85
2024/03/10 06:01:34;;;;;;;24.43;18.67;;;;;;;4.12;78.93;96745.91;5122744;27;20218;-85
2024/03/10 06:04:01;;;;;;;23.97;17.50;;;;;;;4.24;79.41;96745.81;5133868;27;20206;-85
2024/03/10 06:06:29;;;;;;;26.20;18.50;;;;;;;4.37;78.75;96729.66;5135184;27;20685;-86
2024/03/10 06:08:56;;;;;;;25.27;17.20;;;;;;;4.26;79.26;96720.06;5133167;27;20248;-86
2024/03/10 06:11:23;;;;;;;27.27;16.97;;;;;;;4.31;78.90;96714.84;5134597;27;20201;-85
2024/03/10 06:13:50;;;;;;;29.10;20.33;;;;;;;4.30;78.31;96717.72;5132834;27;20695;-85
2024/03/10 06:16:16;;;;;;;26.03;19.37;;;;;;;4.54;78.78;96750.72;5133673;27;20199;-84
2024/03/10 06:27:00;;;;;;;26.53;19.67;;;;;;;4.63;77.83;96773.00;5116025;27;20580;-85
2024/03/10 06:29:27;;;;;;;25.07;17.17;;;;;;;4.67;78.12;96757.47;5117585;27;20195;-85
2024/03/10 06:31:55;;;;;;;26.17;19.37;;;;;;;4.71;77.83;96760.44;5112732;28;20222;-86
2024/03/10 06:34:23;;;;;;;31.83;23.37;;;;;;;4.59;78.76;96753.44;5098550;28;20274;-85
2024/03/10 06:36:51;;;;;;;28.47;19.87;;;;;;;4.69;78.78;96752.00;5112518;28;20196;-85
2024/03/10 06:39:19;;;;;;;24.13;17.77;;;;;;;4.83;78.31;96755.84;5126607;27;20199;-86
2024/03/10 06:41:46;;;;;;;29.80;20.43;;;;;;;4.96;77.86;96758.13;5133158;27;20214;-86
2024/03/10 06:44:17;;;;;;;27.33;18.73;;;;;;;5.05;77.55;96748.72;5123177;27;20199;-86
2024/03/10 06:46:44;;;;;;;26.60;19.00;;;;;;;5.04;76.99;96717.34;5112176;28;20666;-86
2024/03/10 06:49:11;;;;;;;29.03;20.10;;;;;;;5.31;76.34;96751.66;5121451;27;20207;-85
2024/03/10 06:51:37;;;;;;;31.70;18.47;;;;;;;5.11;76.06;96737.22;5127148;27;20203;-86
2024/03/10 06:54:06;;;;;;;25.20;15.77;;;;;;;4.91;75.47;96692.91;5124466;27;20269;-85
2024/03/10 06:56:33;;;;;;;19.33;17.27;;;;;;;5.37;75.60;96775.19;5114811;27;20215;-85
2024/03/10 06:59:00;;;;;;;24.03;18.00;;;;;;;5.24;75.50;96766.88;5119127;27;20292;-85
2024/03/10 07:01:26;;;;;;;24.20;17.63;;;;;;;5.61;75.40;96804.78;5112782;28;20238;-86
2024/03/10 07:03:53;;;;;;;22.67;17.03;;;;;;;5.74;75.52;96789.56;5133439;27;20198;-85
2024/03/10 07:06:21;;;;;;;23.40;16.33;;;;;;;5.74;74.42;96794.84;5131406;27;20224;-86
2024/03/10 07:08:49;;;;;;;20.63;16.63;;;;;;;5.69;74.22;96784.22;5133040;27;20289;-86
2024/03/10 07:11:17;;;;;;;25.13;18.27;;;;;;;5.67;74.73;96778.41;5128990;27;20221;-86
2024/03/10 07:13:45;;;;;;;21.23;16.10;;;;;;;5.51;73.69;96775.63;5113394;28;20199;-86
2024/03/10 07:16:13;;;;;;;18.33;14.83;;;;;;;5.50;72.72;96760.84;5124022;27;20588;-85
2024/03/10 07:18:40;;;;;;;19.97;15.87;;;;;;;5.66;73.41;96804.03;5132265;27;20656;-86
2024/03/10 07:21:07;;;;;;;21.37;17.67;;;;;;;5.83;73.62;96809.19;5124841;27;20634;-86
2024/03/10 07:23:34;;;;;;;22.43;16.10;;;;;;;5.89;73.84;96802.94;5111552;28;20231;-86
2024/03/10 07:26:01;;;;;;;26.80;16.53;;;;;;;6.04;73.38;96808.38;5120900;28;20657;-85
2024/03/10 07:28:30;;;;;;;22.77;16.80;;;;;;;6.16;72.49;96808.22;5112614;28;20629;-85
2024/03/10 07:30:57;;;;;;;21.77;16.50;;;;;;;6.15;72.08;96811.88;5126582;28;20710;-86
2024/03/10 07:33:24;;;;;;;19.37;14.73;;;;;;;6.30;71.64;96803.28;5132975;27;20649;-85
2024/03/10 07:35:51;;;;;;;18.50;14.33;;;;;;;6.28;71.39;96768.41;5131775;28;20202;-86
2024/03/10 07:38:20;;;;;;;18.80;13.57;;;;;;;6.44;70.41;96787.78;5132982;27;20198;-85
2024/03/10 07:40:47;;;;;;;20.90;14.33;;;;;;;6.52;70.75;96806.63;5131815;28;20211;-86
2024/03/10 07:43:15;;;;;;;18.23;13.97;;;;;;;6.68;70.13;96804.88;5133156;27;20653;-88
2024/03/10 07:45:44;;;;;;;20.37;14.00;;;;;;;6.57;70.49;96790.78;5121577;27;20191;-88
2024/03/10 07:48:11;;;;;;;14.93;12.57;;;;;;;6.53;70.50;96762.47;5117799;28;20372;-86
2024/03/10 07:50:37;;;;;;;18.60;14.77;;;;;;;6.66;70.14;96767.31;5122123;27;20259;-92
2024/03/10 07:53:04;;;;;;;18.10;14.03;;;;;;;7.10;70.17;96811.97;5121138;27;20551;-93
2024/03/10 07:55:31;;;;;;;16.73;12.90;;;;;;;6.83;69.87;96772.41;5115708;28;20208;-92
2024/03/10 07:57:58;;;;;;;16.90;13.90;;;;;;;7.37;68.98;96790.63;5117247;28;20195;-91
2024/03/10 08:00:28;;;;;;;16.00;12.67;;;;;;;7.57;68.26;96792.53;5117144;27;20715;-86
2024/03/10 08:02:57;;;;;;;14.90;12.07;;;;;;;7.71;67.13;96795.50;5131896;27;20567;-86
2024/03/10 08:05:25;;;;;;;14.33;12.77;;;;;;;7.68;66.52;96786.22;5131700;27;20198;-83
2024/03/10 08:07:52;;;;;;;15.57;11.73;;;;;;;8.21;65.49;96762.94;5137993;27;20207;-85
2024/03/10 08:10:20;;;;;;;16.17;11.90;;;;;;;9.30;61.96;96803.06;5137359;27;20205;-85
2024/03/10 08:12:48;;;;;;;15.13;10.80;;;;;;;9.00;60.88;96731.47;5135474;27;20198;-86
2024/03/10 08:15:17;;;;;;;18.17;13.93;;;;;;;8.53;61.78;96765.31;5137338;27;20198;-86
2024/03/10 08:17:44;;;;;;;14.83;11.93;;;;;;;8.46;62.77;96766.66;5121606;27;20579;-87
2024/03/10 08:20:14;;;;;;;12.60;11.20;;;;;;;8.55;62.94;96795.00;5116199;27;20673;-87
2024/03/10 08:22:42;;;;;;;14.93;12.73;;;;;;;8.86;63.30;96799.47;5136475;27;20293;-86
2024/03/10 08:25:09;;;;;;;14.83;11.97;;;;;;;9.06;60.65;96805.53;5137127;27;20255;-83
2024/03/10 08:27:36;;;;;;;18.23;14.03;;;;;;;9.37;61.86;96749.63;5118082;27;20202;-86
2024/03/10 08:30:04;;;;;;;19.03;14.93;;;;;;;9.59;59.97;96759.06;5137357;27;20341;-86
2024/03/10 08:32:31;;;;;;;14.37;12.10;;;;;;;9.70;58.69;96787.97;5135916;27;20247;-86
2024/03/10 08:34:57;;;;;;;13.57;12.03;;;;;;;9.80;59.74;96800.41;5123544;27;20235;-87
2024/03/10 08:37:29;;;;;;;14.87;12.37;;;;;;;9.01;59.36;96757.75;5116306;28;20206;-88
2024/03/10 08:39:55;;;;;;;13.63;11.30;;;;;;;8.96;62.08;96810.88;5116434;28;20203;-87
2024/03/10 08:42:24;;;;;;;17.57;10.77;;;;;;;8.72;62.59;96781.47;5115692;28;20223;-85
2024/03/10 08:44:53;;;;;;;13.80;11.43;;;;;;;8.90;62.41;96787.25;5116164;28;20260;-87
2024/03/10 08:47:20;;;;;;;12.77;10.80;;;;;;;8.77;63.17;96781.44;5124036;27;20657;-87
2024/03/10 08:49:47;;;;;;;11.73;10.27;;;;;;;8.83;63.05;96784.91;5136932;27;20649;-87
2024/03/10 08:52:14;;;;;;;14.13;11.43;;;;;;;8.87;62.61;96783.28;5135431;27;20221;-87
2024/03/10 08:54:42;;;;;;;15.50;10.07;;;;;;;8.96;62.49;96800.25;5123470;27;20211;-88
2024/03/10 08:57:09;;;;;;;18.90;12.07;;;;;;;8.84;62.54;96759.94;5115003;28;20256;-89
2024/03/10 08:59:36;;;;;;;12.63;10.73;;;;;;;9.13;61.93;96769.91;5126167;27;20222;-88
2024/03/10 09:02:03;;;;;;;12.23;11.03;;;;;;;9.22;61.22;96723.16;5135853;27;20237;-88
2024/03/10 09:04:30;;;;;;;15.57;11.37;;;;;;;9.49;59.27;96739.47;5136592;27;20194;-88
2024/03/10 09:06:57;;;;;;;12.40;10.83;;;;;;;9.70;60.58;96772.03;5135183;27;20207;-86
2024/03/10 09:09:24;;;;;;;13.80;12.00;;;;;;;9.34;59.84;96754.69;5135231;27;20191;-87
2024/03/10 09:11:52;;;;;;;16.23;11.17;;;;;;;9.12;62.02;96768.34;5134936;27;20206;-86
2024/03/10 09:14:19;;;;;;;14.27;11.27;;;;;;;9.16;62.15;96764.84;5135513;27;20191;-86
2024/03/10 09:16:46;;;;;;;12.90;10.43;;;;;;;9.19;61.59;96758.22;5134685;27;20237;-88
2024/03/10 09:19:14;;;;;;;13.30;11.47;;;;;;;9.11;61.89;96767.53;5134594;27;20202;-87
2024/03/10 09:21:43;;;;;;;13.77;11.37;;;;;;;8.60;61.83;96765.03;5135125;27;20223;-86
2024/03/10 09:24:11;;;;;;;14.77;11.73;;;;;;;8.93;61.98;96776.88;5135560;27;20252;-86
2024/03/10 09:26:39;;;;;;;16.13;14.00;;;;;;;9.14;63.02;96772.31;5133786;27;20199;-85
2024/03/10 09:29:07;;;;;;;19.33;16.20;;;;;;;9.22;64.60;96777.06;5136120;27;20191;-88
2024/03/10 09:31:34;;;;;;;18.73;14.53;;;;;;;8.87;64.97;96779.81;5134542;27;20642;-87
2024/03/10 09:34:03;;;;;;;19.83;13.67;;;;;;;9.04;65.56;96780.31;5135340;27;20684;-88
2024/03/10 09:36:30;;;;;;;18.63;14.13;;;;;;;8.87;64.98;96785.94;5136779;27;20199;-88
2024/03/10 09:38:59;;;;;;;19.43;14.60;;;;;;;8.97;64.62;96790.41;5135885;27;20199;-87
2024/03/10 09:41:31;;;;;;;16.10;12.93;;;;;;;8.93;64.38;96795.47;5136095;27;20218;-85
2024/03/10 09:44:00;;;;;;;20.80;15.07;;;;;;;8.86;64.78;96797.59;5133904;27;20281;-84
2024/03/10 09:46:29;;;;;;;22.97;15.67;;;;;;;8.86;65.32;96804.78;5133811;27;20564;-84
2024/03/10 09:48:58;;;;;;;16.50;13.33;;;;;;;8.93;65.67;96784.06;5134476;27;20221;-84
2024/03/10 09:51:27;;;;;;;19.50;14.80;;;;;;;8.89;65.75;96780.34;5133506;27;20206;-85
2024/03/10 09:53:54;;;;;;;18.10;13.00;;;;;;;8.77;65.19;96757.56;5134457;27;20195;-85
2024/03/10 09:56:21;;;;;;;24.63;17.40;;;;;;;8.83;65.35;96766.31;5133516;27;20207;-84
2024/03/10 09:59:00;;;;;;;19.23;15.43;;;;;;;8.48;65.96;96717.59;5134883;27;20223;-84
2024/03/10 10:01:30;;;;;;;21.27;17.07;;;;;;;9.06;65.42;96760.41;5132976;27;20222;-85
2024/03/10 10:04:01;;;;;;;19.13;15.03;;;;;;;9.36;63.85;96753.34;5093572;28;20196;-84
2024/03/10 10:06:32;;;;;;;22.67;17.73;;;;;;;9.24;63.38;96729.75;5094395;28;20634;-84
2024/03/10 10:09:07;;;;;;;44.80;24.33;;;;;;;9.65;64.25;96761.44;5131299;27;20688;-84
2024/03/10 10:11:34;;;;;;;35.03;25.00;;;;;;;9.89;63.05;96764.19;5133684;27;20206;-84
2024/03/10 10:14:08;;;;;;;27.97;22.97;;;;;;;10.05;61.37;96757.69;5133025;27;20194;-85
2024/03/10 10:16:37;;;;;;;28.80;22.23;;;;;;;10.61;60.86;96750.28;5120321;27;20198;-85
2024/03/10 10:19:05;;;;;;;23.13;16.23;;;;;;;10.93;59.67;96742.50;5113791;28;20264;-85
2024/03/10 10:21:32;;;;;;;20.03;16.63;;;;;;;11.32;59.44;96743.38;5117166;27;20269;-84
2024/03/10 10:24:00;;;;;;;20.10;16.57;;;;;;;11.02;58.44;96716.03;5133436;27;20195;-83
2024/03/10 10:26:27;;;;;;;19.17;14.23;;;;;;;10.79;59.74;96714.97;5135961;27;20198;-85
2024/03/10 10:29:07;;;;;;;18.50;15.17;;;;;;;11.05;59.92;96714.69;5095325;28;20632;-84
2024/03/10 10:31:37;;;;;;;19.10;15.50;;;;;;;11.32;57.69;96736.16;5095364;28;20200;-83
2024/03/10 10:34:05;;;;;;;17.60;14.60;;;;;;;10.86;59.18;96735.94;5108935;27;20265;-84
2024/03/10 10:36:35;;;;;;;17.50;13.80;;;;;;;11.48;56.48;96720.75;5135539;27;20251;-83
2024/03/10 10:39:08;;;;;;;20.13;14.07;;;;;;;11.59;57.57;96721.41;5126905;27;20287;-84
2024/03/10 10:41:35;;;;;;;19.70;14.03;;;;;;;11.66;56.06;96703.19;5113834;28;20567;-84
2024/03/10 10:44:04;;;;;;;19.90;14.10;;;;;;;11.67;55.55;96716.22;5122869;27;20191;-84
2024/03/10 10:46:33;;;;;;;18.50;16.70;;;;;;;11.52;57.25;96711.09;5132865;27;20303;-84
2024/03/10 10:49:04;;;;;;;20.17;17.73;;;;;;;11.42;57.95;96698.72;5123890;27;20230;-84
2024/03/10 10:51:32;;;;;;;18.67;13.90;;;;;;;11.92;57.09;96699.06;5134125;27;20198;-83
2024/03/10 10:53:59;;;;;;;18.13;13.40;;;;;;;11.34;57.89;96674.59;5132356;27;20648;-84
2024/03/10 10:56:26;;;;;;;20.10;15.17;;;;;;;11.88;57.01;96711.38;5131668;27;20225;-85
2024/03/10 10:58:54;;;;;;;18.13;14.50;;;;;;;12.08;56.30;96709.47;5112806;28;20215;-85
2024/03/10 11:01:22;;;;;;;21.93;16.23;;;;;;;12.75;56.75;96706.44;5122604;27;20599;-84
2024/03/10 11:03:49;;;;;;;17.27;14.13;;;;;;;12.34;55.43;96702.63;5132372;27;20664;-85
2024/03/10 11:06:32;;;;;;;18.80;13.97;;;;;;;12.05;55.37;96686.06;5132366;27;20214;-85
2024/03/10 11:08:59;;;;;;;15.13;13.13;;;;;;;13.07;53.99;96676.13;5132786;27;20546;-84
2024/03/10 11:11:44;;;;;;;17.00;13.20;;;;;;;13.32;52.10;96675.63;5132901;27;20198;-85
2024/03/10 11:14:13;;;;;;;16.17;14.20;;;;;;;13.72;52.15;96681.13;5133566;27;20197;-84
2024/03/10 11:16:40;;;;;;;18.87;13.70;;;;;;;13.49;50.63;96683.00;5133001;27;20297;-84
2024/03/10 11:19:15;;;;;;;16.43;12.30;;;;;;;13.74;49.41;96676.25;5130363;27;20588;-84
2024/03/10 11:21:45;;;;;;;16.23;13.37;;;;;;;13.48;51.36;96656.56;5124960;27;20206;-84
2024/03/10 11:24:20;;;;;;;15.63;12.53;;;;;;;13.52;50.18;96668.25;5132379;27;20194;-84
2024/03/10 11:26:48;;;;;;;15.07;13.13;;;;;;;13.72;50.14;96669.66;5092313;28;20282;-84
2024/03/10 11:29:27;;;;;;;17.27;13.27;;;;;;;14.03;48.76;96654.41;5092378;28;20647;-84
2024/03/10 11:32:00;;;;;;;15.10;12.97;;;;;;;14.04;50.13;96663.25;5114766;28;20255;-84
2024/03/10 11:34:28;;;;;;;19.57;13.23;;;;;;;13.07;50.76;96658.22;5133121;28;20190;-84
2024/03/10 11:36:58;;;;;;;20.50;16.43;;;;;;;13.17;50.61;96649.19;5121060;27;20214;-84
2024/03/10 11:39:28;;;;;;;14.33;12.47;;;;;;;13.49;51.17;96610.78;5112831;28;20223;-84
2024/03/10 11:41:55;;;;;;;14.53;11.97;;;;;;;13.52;49.88;96649.53;5113156;28;20587;-84
2024/03/10 11:44:24;;;;;;;16.77;13.50;;;;;;;13.60;50.13;96638.09;5101850;28;20214;-84
2024/03/10 11:46:50;;;;;;;13.67;11.87;;;;;;;13.60;51.44;96646.91;5112036;28;20286;-84
2024/03/10 11:49:17;;;;;;;14.43;11.60;;;;;;;13.65;49.39;96613.91;5120474;28;20195;-84